createdAt,value
2023-01-03T00:04:29.106Z,23.45
2023-01-03T00:09:30.946Z,21.50
2023-01-03T00:14:35.547Z,22.65
2023-01-03T00:19:43.251Z,22.63
2023-01-03T00:24:46.437Z,25.23
2023-01-03T00:29:48.077Z,27.73
2023-01-03T00:34:49.711Z,23.75
2023-01-03T00:39:51.365Z,23.42
2023-01-03T00:44:52.963Z,23.15
2023-01-03T00:49:54.841Z,23.60
2023-01-03T00:54:56.649Z,25.50
2023-01-03T00:59:58.249Z,25.63
2023-01-03T01:05:00.166Z,23.98
2023-01-03T01:10:02.319Z,21.60
2023-01-03T01:15:04.489Z,26.55
2023-01-03T01:20:07.284Z,25.85
2023-01-03T01:25:08.946Z,23.45
2023-01-03T01:30:10.614Z,21.48
2023-01-03T01:35:12.220Z,22.52
2023-01-03T01:40:13.924Z,23.70
2023-01-03T01:45:15.584Z,23.52
2023-01-03T01:50:29.361Z,22.48
2023-01-03T01:55:45.169Z,22.40
2023-01-03T02:00:46.786Z,22.63
2023-01-03T02:05:53.630Z,22.98
2023-01-03T02:11:15.944Z,22.13
2023-01-03T02:16:35.884Z,19.85
2023-01-03T02:21:46.504Z,21.38
2023-01-03T02:27:13.151Z,21.60
2023-01-03T02:32:43.165Z,20.60
2023-01-03T02:37:54.165Z,21.65
2023-01-03T02:43:17.075Z,20.13
2023-01-03T02:48:31.116Z,22.33
2023-01-03T02:53:42.011Z,20.50
2023-01-03T02:58:47.880Z,22.02
2023-01-03T03:03:52.526Z,21.08
2023-01-03T03:08:54.354Z,23.58
2023-01-03T03:14:22.531Z,23.15
2023-01-03T03:19:54.289Z,29.48
2023-01-03T03:24:59.502Z,26.50
2023-01-03T03:30:03.945Z,24.35
2023-01-03T03:35:10.715Z,23.70
2023-01-03T03:40:32.572Z,28.33
2023-01-03T03:46:21.784Z,26.73
2023-01-03T03:51:28.819Z,25.97
2023-01-03T03:56:32.756Z,27.25
2023-01-03T04:01:37.848Z,21.77
2023-01-03T04:06:49.175Z,28.92
2023-01-03T04:11:50.921Z,28.17
2023-01-03T04:16:52.573Z,24.23
2023-01-03T04:21:54.226Z,26.05
2023-01-03T04:26:56.059Z,24.23
2023-01-03T04:31:57.715Z,20.35
2023-01-03T04:36:59.344Z,23.45
2023-01-03T04:42:01.574Z,24.55
2023-01-03T04:47:03.517Z,21.98
2023-01-03T04:52:05.230Z,21.55
2023-01-03T04:57:07.512Z,20.00
2023-01-03T05:02:09.233Z,18.83
2023-01-03T05:07:11.059Z,17.52
2023-01-03T05:12:12.838Z,17.67
2023-01-03T05:17:14.435Z,19.27
2023-01-03T05:22:34.759Z,16.65
2023-01-03T05:27:36.431Z,18.25
2023-01-03T05:32:37.994Z,20.95
2023-01-03T05:37:39.747Z,17.15
2023-01-03T05:42:41.357Z,17.42
2023-01-03T05:47:42.960Z,17.17
2023-01-03T05:52:44.563Z,16.67
2023-01-03T05:57:47.331Z,16.85
2023-01-03T06:02:49.225Z,16.08
2023-01-03T06:07:50.880Z,16.67
2023-01-03T06:12:52.519Z,18.23
2023-01-03T06:18:02.943Z,17.95
2023-01-03T06:23:04.543Z,19.60
2023-01-03T06:28:06.188Z,21.67
2023-01-03T06:33:08.146Z,21.30
2023-01-03T06:38:09.988Z,17.83
2023-01-03T06:43:11.617Z,17.92
2023-01-03T06:48:31.903Z,18.50
2023-01-03T06:53:37.570Z,18.08
2023-01-03T06:58:39.213Z,21.17
2023-01-03T07:03:40.817Z,24.08
2023-01-03T07:08:47.848Z,20.50
2023-01-03T07:13:59.607Z,19.75
2023-01-03T07:19:02.276Z,20.55
2023-01-03T07:24:05.855Z,20.02
2023-01-03T07:29:09.548Z,19.40
2023-01-03T07:34:11.202Z,20.80
2023-01-03T07:39:12.858Z,28.65
2023-01-03T07:44:14.454Z,19.13
2023-01-03T07:49:16.077Z,26.15
2023-01-03T07:54:17.679Z,18.00
2023-01-03T07:59:19.843Z,17.80
2023-01-03T08:04:21.726Z,17.98
2023-01-03T08:09:43.573Z,19.60
2023-01-03T08:14:45.355Z,19.75
2023-01-03T08:19:46.969Z,19.55
2023-01-03T08:24:48.584Z,19.42
2023-01-03T08:29:50.254Z,20.20
2023-01-03T08:34:52.131Z,21.60
2023-01-03T08:40:01.598Z,20.23
2023-01-03T08:45:09.204Z,21.45
2023-01-03T08:50:12.486Z,27.38
2023-01-03T08:55:14.178Z,26.10
2023-01-03T09:00:16.038Z,26.60
2023-01-03T09:05:17.859Z,22.70
2023-01-03T09:10:19.529Z,23.27
2023-01-03T09:15:21.216Z,22.38
2023-01-03T09:20:22.924Z,24.30
2023-01-03T09:25:24.800Z,23.40
2023-01-03T09:30:26.461Z,22.80
2023-01-03T09:35:28.256Z,22.63
2023-01-03T09:40:31.577Z,21.98
2023-01-03T09:45:34.850Z,20.27
2023-01-03T09:51:05.846Z,21.67
2023-01-03T09:56:19.528Z,17.45
2023-01-03T10:01:51.428Z,17.30
2023-01-03T10:07:14.583Z,17.50
2023-01-03T10:12:43.779Z,17.13
2023-01-03T10:18:09.984Z,16.42
2023-01-03T10:23:11.950Z,17.70
2023-01-03T10:28:21.416Z,20.30
2023-01-03T10:33:33.061Z,18.95
2023-01-03T10:38:43.675Z,17.02
2023-01-03T10:44:00.602Z,15.88
2023-01-03T10:49:28.312Z,17.63
2023-01-03T10:54:40.419Z,16.50
2023-01-03T10:59:49.325Z,16.75
2023-01-03T11:10:18.755Z,17.02
2023-01-03T11:15:42.522Z,17.70
2023-01-03T11:20:57.791Z,17.70
2023-01-03T11:26:05.324Z,17.40
2023-01-03T11:31:17.346Z,16.05
2023-01-03T11:36:22.588Z,13.98
2023-01-03T11:41:33.611Z,13.15
2023-01-03T11:47:07.119Z,14.30
2023-01-03T11:52:27.975Z,14.18
2023-01-03T11:58:05.847Z,13.27
2023-01-03T12:03:31.946Z,14.27
2023-01-03T12:09:02.251Z,13.40
2023-01-03T12:14:19.530Z,15.45
2023-01-03T12:19:51.419Z,14.35
2023-01-03T12:25:07.156Z,14.35
2023-01-03T12:30:24.905Z,14.32
2023-01-03T12:35:32.975Z,14.57
2023-01-03T12:41:07.893Z,14.35
2023-01-03T12:46:15.432Z,12.90
2023-01-03T12:51:20.719Z,13.07
2023-01-03T12:56:55.659Z,13.30
2023-01-03T13:02:00.810Z,13.60
2023-01-03T13:07:33.400Z,14.07
2023-01-03T13:12:39.108Z,13.10
2023-01-03T13:17:46.419Z,12.85
2023-01-03T13:23:01.739Z,12.18
2023-01-03T13:28:18.737Z,12.27
2023-01-03T13:33:20.975Z,12.73
2023-01-03T13:38:37.108Z,13.02
2023-01-03T13:43:40.257Z,14.10
2023-01-03T13:48:53.877Z,11.60
2023-01-03T13:54:18.654Z,12.68
2023-01-03T13:59:42.886Z,11.73
2023-01-03T14:04:52.990Z,11.60
2023-01-03T14:10:01.187Z,12.00
2023-01-03T14:15:25.004Z,12.63
2023-01-03T14:20:34.680Z,15.32
2023-01-03T14:25:39.384Z,13.13
2023-01-03T14:30:41.355Z,11.82
2023-01-03T14:35:44.605Z,11.20
2023-01-03T14:40:48.333Z,11.65
2023-01-03T14:45:55.758Z,13.57
2023-01-03T14:51:01.483Z,12.65
2023-01-03T14:56:03.503Z,12.18
2023-01-03T15:01:08.647Z,11.32
2023-01-03T15:06:21.405Z,10.57
2023-01-03T15:11:33.174Z,10.02
2023-01-03T15:16:38.138Z,10.75
2023-01-03T15:21:41.469Z,11.00
2023-01-03T15:26:51.335Z,11.00
2023-01-03T15:31:57.824Z,11.20
2023-01-03T15:37:00.942Z,11.65
2023-01-03T15:47:43.877Z,18.73
2023-01-03T15:52:48.976Z,22.50
2023-01-03T15:57:52.603Z,18.70
2023-01-03T16:02:54.382Z,17.42
2023-01-03T16:07:56.068Z,19.38
2023-01-03T16:12:57.727Z,15.85
2023-01-03T16:17:59.366Z,16.35
2023-01-03T16:23:02.021Z,16.10
2023-01-03T16:28:10.201Z,16.42
2023-01-03T16:33:21.029Z,12.88
2023-01-03T16:38:25.596Z,24.95
2023-01-03T16:43:27.623Z,23.20
2023-01-03T16:48:40.410Z,16.00
2023-01-03T16:53:42.010Z,13.18
2023-01-03T16:58:43.687Z,17.83
2023-01-03T17:03:45.891Z,13.80
2023-01-03T17:08:47.624Z,14.50
2023-01-03T17:13:49.623Z,17.10
2023-01-03T17:18:53.422Z,13.23
2023-01-03T17:24:00.759Z,12.73
2023-01-03T17:29:04.729Z,12.23
2023-01-03T17:34:28.048Z,12.23
2023-01-03T17:39:29.851Z,13.82
2023-01-03T17:44:31.455Z,13.05
2023-01-03T17:49:33.090Z,13.05
2023-01-03T17:54:40.465Z,15.50
2023-01-03T17:59:42.130Z,14.45
2023-01-03T18:05:14.138Z,15.90
2023-01-03T18:10:07.603Z,15.38
2023-01-03T18:15:21.351Z,16.60
2023-01-03T18:20:23.180Z,13.80
2023-01-03T18:25:25.904Z,13.18
2023-01-03T18:30:27.796Z,14.65
2023-01-03T18:35:37.249Z,13.95
2023-01-03T18:40:40.906Z,14.95
2023-01-03T18:45:42.680Z,15.38
2023-01-03T18:50:49.402Z,13.85
2023-01-03T18:55:53.556Z,12.73
2023-01-03T19:00:55.284Z,12.85
2023-01-03T19:05:59.344Z,12.20
2023-01-03T19:11:07.573Z,12.27
2023-01-03T19:16:09.315Z,11.60
2023-01-03T19:21:14.485Z,14.98
2023-01-03T19:26:27.283Z,18.52
2023-01-03T19:31:39.231Z,18.08
2023-01-03T19:36:41.079Z,17.13
2023-01-03T19:42:07.769Z,15.10
2023-01-03T19:47:17.825Z,18.27
2023-01-03T19:52:19.412Z,37.42
2023-01-03T19:57:24.709Z,24.05
2023-01-03T20:02:32.390Z,15.77
2023-01-03T20:07:34.287Z,14.75
2023-01-03T20:12:35.937Z,16.70
2023-01-03T20:17:37.534Z,15.73
2023-01-03T20:28:02.083Z,17.70
2023-01-03T20:33:04.064Z,23.38
2023-01-03T20:38:05.690Z,20.75
2023-01-03T20:43:13.581Z,21.77
2023-01-03T20:48:24.729Z,15.13
2023-01-03T20:53:27.541Z,17.75
2023-01-03T20:58:29.354Z,18.63
2023-01-03T21:03:31.053Z,18.38
2023-01-03T21:08:51.309Z,18.23
2023-01-03T21:13:53.607Z,18.65
2023-01-03T21:18:55.818Z,17.52
2023-01-03T21:23:57.518Z,17.88
2023-01-03T21:28:59.724Z,18.80
2023-01-03T21:34:03.136Z,17.95
2023-01-03T21:39:05.017Z,21.35
2023-01-03T21:44:07.855Z,27.17
2023-01-03T21:49:09.519Z,20.98
2023-01-03T21:54:11.853Z,18.58
2023-01-03T21:59:15.688Z,18.23
2023-01-03T22:04:17.385Z,18.02
2023-01-03T22:09:38.061Z,18.10
2023-01-03T22:14:39.929Z,18.13
2023-01-03T22:19:41.996Z,17.55
2023-01-03T22:24:43.866Z,16.73
2023-01-03T22:29:45.497Z,17.58
2023-01-03T22:34:47.101Z,16.27
2023-01-03T22:39:48.764Z,17.77
2023-01-03T22:44:50.408Z,17.08
2023-01-03T22:49:52.059Z,16.38
2023-01-03T22:54:53.657Z,16.00
2023-01-03T22:59:55.297Z,18.80
2023-01-03T23:04:57.122Z,18.35
2023-01-03T23:09:58.735Z,15.70
2023-01-03T23:15:00.325Z,16.15
2023-01-03T23:20:02.175Z,18.10
2023-01-03T23:25:03.942Z,16.98
2023-01-03T23:30:06.159Z,17.52
2023-01-03T23:35:08.950Z,17.15
2023-01-03T23:40:11.198Z,19.25
2023-01-03T23:45:12.883Z,20.00
2023-01-03T23:50:14.515Z,18.35
2023-01-03T23:55:16.191Z,20.55
